Time;durP1;ratioP1;P1;durP2;ratioP2;P2;SDS_P1;SDS_P2;PMS_P1;PMS_P2;Temp;Humidity;BMP_temperature;BMP_pressure;BME280_temperature;BME280_humidity;BME280_pressure;Samples;Min_cycle;Max_cycle;Signal;HPM_P1;HPM_P2
2024/04/16 00:01:53;;;;;;;;;6.00;2.33;;;;;;;;5499460;25;43803;-48
2024/04/16 00:04:18;;;;;;;;;2.67;1.00;;;;;;;;5498077;25;44863;-48
2024/04/16 00:06:43;;;;;;;;;4.00;1.00;;;;;;;;5487406;25;43983;-48
2024/04/16 00:09:08;;;;;;;;;1.00;1.00;;;;;;;;5501392;25;44018;-47
2024/04/16 00:11:34;;;;;;;;;4.00;1.00;;;;;;;;5468254;25;43981;-48
2024/04/16 00:13:59;;;;;;;;;1.67;1.67;;;;;;;;5493842;25;44116;-49
2024/04/16 00:16:24;;;;;;;;;1.00;1.00;;;;;;;;5488927;25;43912;-47
2024/04/16 00:18:49;;;;;;;;;3.00;1.00;;;;;;;;5502119;25;44029;-49
2024/04/16 00:21:14;;;;;;;;;3.33;0.00;;;;;;;;5504425;25;44249;-48
2024/04/16 00:23:39;;;;;;;;;0.67;0.67;;;;;;;;5502802;25;44776;-48
2024/04/16 00:26:05;;;;;;;;;1.67;1.00;;;;;;;;5503999;25;43897;-47
2024/04/16 00:28:30;;;;;;;;;2.67;1.00;;;;;;;;5503629;25;44386;-47
2024/04/16 00:30:55;;;;;;;;;1.67;1.00;;;;;;;;5489696;25;44117;-51
2024/04/16 00:33:20;;;;;;;;;5.00;1.67;;;;;;;;5499048;25;43865;-48
2024/04/16 00:35:45;;;;;;;;;2.00;0.00;;;;;;;;5470758;25;44006;-49
2024/04/16 00:38:10;;;;;;;;;1.33;0.33;;;;;;;;5490487;25;43934;-47
2024/04/16 00:40:36;;;;;;;;;3.00;0.00;;;;;;;;5502381;25;44084;-47
2024/04/16 00:43:13;;;;;;;;;3.00;1.00;;;;;;;;5497823;25;44199;-46
2024/04/16 00:45:40;;;;;;;;;1.00;0.67;;;;;;;;5502906;25;44439;-49
2024/04/16 00:48:05;;;;;;;;;2.33;1.00;;;;;;;;5500299;25;43837;-48
2024/04/16 00:50:31;;;;;;;;;4.00;1.00;;;;;;;;5499162;25;43895;-47
2024/04/16 00:52:56;;;;;;;;;0.00;0.00;;;;;;;;5481823;25;44881;-48
2024/04/16 00:55:21;;;;;;;;;3.67;1.33;;;;;;;;5503483;25;43867;-47
2024/04/16 00:57:47;;;;;;;;;2.00;0.00;;;;;;;;5502622;25;43690;-49
2024/04/16 01:00:12;;;;;;;;;2.00;1.00;;;;;;;;5503530;25;44023;-50
2024/04/16 01:02:37;;;;;;;;;2.00;1.00;;;;;;;;5502763;25;45077;-48
2024/04/16 01:05:03;;;;;;;;;2.00;1.00;;;;;;;;5503605;25;43718;-48
2024/04/16 01:07:28;;;;;;;;;1.33;0.00;;;;;;;;5491054;25;43902;-47
2024/04/16 01:09:53;;;;;;;;;1.00;1.00;;;;;;;;5503265;25;43800;-48
2024/04/16 01:12:18;;;;;;;;;2.00;0.67;;;;;;;;5487302;25;44849;-49
2024/04/16 01:14:43;;;;;;;;;1.00;1.00;;;;;;;;5470675;25;43874;-48
2024/04/16 01:17:08;;;;;;;;;3.67;1.00;;;;;;;;5500632;25;43806;-46
2024/04/16 01:19:34;;;;;;;;;2.00;2.00;;;;;;;;5503403;25;43705;-46
2024/04/16 01:21:59;;;;;;;;;4.00;1.00;;;;;;;;5503639;25;44138;-46
2024/04/16 01:24:24;;;;;;;;;2.67;1.00;;;;;;;;5502628;25;43848;-47
2024/04/16 01:26:49;;;;;;;;;5.00;1.00;;;;;;;;5502513;25;43929;-47
2024/04/16 01:29:15;;;;;;;;;3.00;1.33;;;;;;;;5484108;25;43804;-50
2024/04/16 01:31:40;;;;;;;;;2.33;1.00;;;;;;;;5491197;25;45809;-47
2024/04/16 01:34:05;;;;;;;;;3.00;1.00;;;;;;;;5483584;25;43707;-47
2024/04/16 01:36:30;;;;;;;;;3.67;1.33;;;;;;;;5501411;25;43904;-47
2024/04/16 01:38:55;;;;;;;;;2.33;2.00;;;;;;;;5483963;25;43977;-48
2024/04/16 01:41:21;;;;;;;;;5.00;2.00;;;;;;;;5474670;25;45251;-47
2024/04/16 01:43:46;;;;;;;;;3.00;1.00;;;;;;;;5502859;25;44003;-50
2024/04/16 01:46:11;;;;;;;;;4.33;2.00;;;;;;;;5502999;25;43920;-50
2024/04/16 01:48:37;;;;;;;;;0.00;0.00;;;;;;;;5469286;25;44336;-50
2024/04/16 01:51:03;;;;;;;;;1.00;1.00;;;;;;;;5470459;25;45724;-47
2024/04/16 01:53:28;;;;;;;;;8.67;1.00;;;;;;;;5502854;25;43999;-50
2024/04/16 01:55:53;;;;;;;;;0.33;0.33;;;;;;;;5503474;25;43824;-46
2024/04/16 01:58:18;;;;;;;;;2.00;2.00;;;;;;;;5499647;25;43957;-48
2024/04/16 02:00:44;;;;;;;;;3.00;1.00;;;;;;;;5493714;25;45856;-47
2024/04/16 02:03:09;;;;;;;;;2.33;1.00;;;;;;;;5501153;25;44275;-47
2024/04/16 02:05:36;;;;;;;;;0.00;0.00;;;;;;;;5501309;25;43807;-48
2024/04/16 02:08:01;;;;;;;;;0.00;0.00;;;;;;;;5503200;25;43665;-47
2024/04/16 02:10:26;;;;;;;;;2.33;1.00;;;;;;;;5497059;25;44213;-48
2024/04/16 02:12:52;;;;;;;;;5.67;2.33;;;;;;;;5503459;25;43836;-48
2024/04/16 02:15:17;;;;;;;;;1.00;0.00;;;;;;;;5502994;25;43649;-47
2024/04/16 02:17:42;;;;;;;;;2.00;2.00;;;;;;;;5502942;25;43936;-50
2024/04/16 02:20:07;;;;;;;;;3.67;0.67;;;;;;;;5450308;25;45588;-48
2024/04/16 02:22:32;;;;;;;;;4.00;0.33;;;;;;;;5470277;25;44066;-50
2024/04/16 02:24:58;;;;;;;;;2.00;1.00;;;;;;;;5495860;25;43691;-48
2024/04/16 02:27:23;;;;;;;;;5.00;2.00;;;;;;;;5481306;25;44267;-46
2024/04/16 02:29:48;;;;;;;;;1.67;1.00;;;;;;;;5492513;25;44717;-48
2024/04/16 02:32:13;;;;;;;;;5.00;2.00;;;;;;;;5484432;25;43996;-48
2024/04/16 02:34:39;;;;;;;;;4.00;1.00;;;;;;;;5502469;25;43831;-47
2024/04/16 02:37:04;;;;;;;;;3.00;1.00;;;;;;;;5502805;25;44720;-47
2024/04/16 02:39:29;;;;;;;;;2.33;1.00;;;;;;;;5481624;25;44710;-48
2024/04/16 02:41:54;;;;;;;;;1.67;1.67;;;;;;;;5496899;25;43889;-48
2024/04/16 02:44:19;;;;;;;;;2.33;1.00;;;;;;;;5502963;25;43940;-47
2024/04/16 02:46:45;;;;;;;;;6.00;1.67;;;;;;;;5501864;25;44363;-48
2024/04/16 02:49:10;;;;;;;;;0.33;0.00;;;;;;;;5485350;25;44406;-48
2024/04/16 02:51:35;;;;;;;;;3.33;1.67;;;;;;;;5502064;25;43973;-47
2024/04/16 02:54:00;;;;;;;;;3.67;1.00;;;;;;;;5502837;25;43750;-50
2024/04/16 02:56:25;;;;;;;;;0.33;0.33;;;;;;;;5502463;25;43908;-49
2024/04/16 02:58:50;;;;;;;;;1.00;1.00;;;;;;;;5497014;25;45829;-47
2024/04/16 03:01:16;;;;;;;;;1.00;1.00;;;;;;;;5502546;25;43855;-50
2024/04/16 03:03:41;;;;;;;;;2.00;1.00;;;;;;;;5501782;25;44040;-48
2024/04/16 03:06:06;;;;;;;;;3.33;0.67;;;;;;;;5502209;25;43986;-48
2024/04/16 03:08:31;;;;;;;;;0.67;0.67;;;;;;;;5501398;25;44860;-47
2024/04/16 03:10:57;;;;;;;;;4.00;1.00;;;;;;;;5499428;25;43966;-47
2024/04/16 03:13:22;;;;;;;;;0.33;0.33;;;;;;;;5502045;25;44330;-46
2024/04/16 03:15:47;;;;;;;;;2.00;1.00;;;;;;;;5501728;25;43935;-47
2024/04/16 03:18:12;;;;;;;;;2.00;0.00;;;;;;;;5502117;25;45046;-49
2024/04/16 03:20:38;;;;;;;;;1.00;1.00;;;;;;;;5491316;25;43811;-47
2024/04/16 03:23:03;;;;;;;;;3.00;1.00;;;;;;;;5489117;25;43949;-48
2024/04/16 03:25:28;;;;;;;;;3.00;0.00;;;;;;;;5501473;25;43932;-48
2024/04/16 03:27:53;;;;;;;;;1.33;1.00;;;;;;;;5493129;25;45896;-47
2024/04/16 03:30:19;;;;;;;;;1.33;1.00;;;;;;;;5489961;25;43904;-48
2024/04/16 03:32:44;;;;;;;;;3.33;2.00;;;;;;;;5487533;25;44071;-47
2024/04/16 03:35:09;;;;;;;;;1.33;1.00;;;;;;;;5476968;25;43867;-48
2024/04/16 03:37:34;;;;;;;;;2.00;1.00;;;;;;;;5500419;25;44222;-49
2024/04/16 03:40:00;;;;;;;;;4.00;1.00;;;;;;;;5500261;25;43905;-47
2024/04/16 03:42:25;;;;;;;;;3.00;1.00;;;;;;;;5501747;25;44002;-47
2024/04/16 03:44:54;;;;;;;;;2.33;0.67;;;;;;;;5501258;25;43773;-48
2024/04/16 03:47:19;;;;;;;;;2.00;1.00;;;;;;;;5501201;25;45605;-47
2024/04/16 03:49:44;;;;;;;;;1.00;0.67;;;;;;;;5500876;25;43613;-47
2024/04/16 03:52:09;;;;;;;;;4.00;1.67;;;;;;;;5491425;25;43649;-47
2024/04/16 03:54:34;;;;;;;;;3.00;1.67;;;;;;;;5499284;25;43900;-49
2024/04/16 03:57:00;;;;;;;;;1.67;1.00;;;;;;;;5501152;25;44743;-47
2024/04/16 03:59:38;;;;;;;;;0.33;0.33;;;;;;;;5496530;25;44239;-50
2024/04/16 04:02:04;;;;;;;;;2.00;1.67;;;;;;;;5496583;25;43725;-47
2024/04/16 04:04:29;;;;;;;;;5.00;2.00;;;;;;;;5501004;25;43888;-48
2024/04/16 04:06:54;;;;;;;;;3.00;1.67;;;;;;;;5468903;25;44569;-49
2024/04/16 04:09:20;;;;;;;;;4.67;1.67;;;;;;;;5500401;25;43975;-50
2024/04/16 04:11:45;;;;;;;;;3.67;1.00;;;;;;;;5500275;25;44006;-50
2024/04/16 04:14:10;;;;;;;;;4.00;1.00;;;;;;;;5501110;25;43837;-48
2024/04/16 04:16:35;;;;;;;;;4.00;2.00;;;;;;;;5500550;25;44903;-50
2024/04/16 04:19:01;;;;;;;;;4.67;2.00;;;;;;;;5500567;25;43976;-50
2024/04/16 04:21:26;;;;;;;;;4.33;1.00;;;;;;;;5499586;25;43813;-48
2024/04/16 04:23:51;;;;;;;;;2.00;0.33;;;;;;;;5500098;25;43881;-49
2024/04/16 04:26:16;;;;;;;;;3.00;1.00;;;;;;;;5468082;25;45757;-47
2024/04/16 04:28:41;;;;;;;;;2.00;0.67;;;;;;;;5499841;25;43895;-47
2024/04/16 04:31:33;;;;;;;;;5.33;1.00;;;;;;;;5483780;25;43887;-50
2024/04/16 04:33:58;;;;;;;;;2.33;1.33;;;;;;;;5478309;25;43816;-51
2024/04/16 04:36:23;;;;;;;;;2.67;1.00;;;;;;;;5499512;25;44014;-48
2024/04/16 04:38:49;;;;;;;;;1.67;1.67;;;;;;;;5492295;25;43729;-50
2024/04/16 04:41:14;;;;;;;;;1.00;1.00;;;;;;;;5500284;25;43970;-48
2024/04/16 04:43:39;;;;;;;;;6.33;2.00;;;;;;;;5491598;25;43944;-48
2024/04/16 04:46:04;;;;;;;;;0.00;0.00;;;;;;;;5500111;25;45046;-48
2024/04/16 04:48:29;;;;;;;;;1.00;1.00;;;;;;;;5499322;25;44483;-49
2024/04/16 04:50:55;;;;;;;;;3.00;2.67;;;;;;;;5500223;25;43856;-47
2024/04/16 04:53:20;;;;;;;;;2.67;1.67;;;;;;;;5487806;25;45410;-50
2024/04/16 04:55:45;;;;;;;;;2.33;1.67;;;;;;;;5489628;25;44899;-48
2024/04/16 04:58:10;;;;;;;;;6.33;2.00;;;;;;;;5499964;25;43995;-50
2024/04/16 05:00:37;;;;;;;;;2.67;2.00;;;;;;;;5499721;25;43924;-48
2024/04/16 05:03:03;;;;;;;;;3.33;1.00;;;;;;;;5478257;25;43855;-47
2024/04/16 05:05:29;;;;;;;;;1.67;1.33;;;;;;;;5499900;25;43944;-47
2024/04/16 05:07:54;;;;;;;;;1.33;1.00;;;;;;;;5502325;25;44045;-47
2024/04/16 05:10:20;;;;;;;;;3.33;2.00;;;;;;;;5500615;25;43618;-50
2024/04/16 05:12:45;;;;;;;;;4.00;2.00;;;;;;;;5486176;25;44250;-49
2024/04/16 05:15:10;;;;;;;;;3.67;1.00;;;;;;;;5477091;25;44064;-48
2024/04/16 05:17:35;;;;;;;;;4.67;1.67;;;;;;;;5502737;25;44011;-47
2024/04/16 05:20:00;;;;;;;;;1.33;1.00;;;;;;;;5503371;25;43744;-48
2024/04/16 05:22:26;;;;;;;;;2.33;1.00;;;;;;;;5478868;25;44042;-49
2024/04/16 05:24:51;;;;;;;;;4.67;2.33;;;;;;;;5484258;25;43961;-47
2024/04/16 05:27:16;;;;;;;;;3.00;1.50;;;;;;;;5502952;25;43867;-48
2024/04/16 05:29:41;;;;;;;;;2.33;2.00;;;;;;;;5503025;25;43883;-48
2024/04/16 05:32:09;;;;;;;;;4.33;2.67;;;;;;;;5488546;25;43978;-50
2024/04/16 05:34:34;;;;;;;;;2.33;1.00;;;;;;;;5500804;25;45276;-50
2024/04/16 05:37:00;;;;;;;;;2.33;0.33;;;;;;;;5502664;25;43967;-49
2024/04/16 05:39:25;;;;;;;;;4.00;2.00;;;;;;;;5502244;25;43821;-47
2024/04/16 05:41:50;;;;;;;;;3.00;1.00;;;;;;;;5503177;25;43855;-50
2024/04/16 05:44:15;;;;;;;;;3.67;1.33;;;;;;;;5501985;25;44857;-47
2024/04/16 05:46:40;;;;;;;;;3.00;1.00;;;;;;;;5502198;25;43953;-47
2024/04/16 05:49:05;;;;;;;;;4.00;2.33;;;;;;;;5470088;25;43994;-48
2024/04/16 05:51:30;;;;;;;;;1.00;1.00;;;;;;;;5496357;25;43811;-48
2024/04/16 05:53:56;;;;;;;;;3.67;1.33;;;;;;;;5501939;25;45021;-48
2024/04/16 05:56:21;;;;;;;;;4.67;2.00;;;;;;;;5495729;25;44081;-47
2024/04/16 05:58:46;;;;;;;;;3.33;2.00;;;;;;;;5502572;25;43783;-48
2024/04/16 06:01:12;;;;;;;;;6.67;3.00;;;;;;;;5496841;25;44095;-50
2024/04/16 06:03:38;;;;;;;;;4.33;3.00;;;;;;;;5488207;25;44646;-49
2024/04/16 06:06:03;;;;;;;;;2.33;2.00;;;;;;;;5502416;25;43898;-49
2024/04/16 06:08:29;;;;;;;;;4.00;2.00;;;;;;;;5502151;25;43732;-46
2024/04/16 06:10:54;;;;;;;;;2.33;2.00;;;;;;;;5489935;25;43885;-48
2024/04/16 06:13:19;;;;;;;;;3.67;2.00;;;;;;;;5502784;25;44967;-48
2024/04/16 06:15:44;;;;;;;;;4.00;1.67;;;;;;;;5434383;25;43923;-50
2024/04/16 06:18:12;;;;;;;;;3.33;2.00;;;;;;;;5494794;25;43848;-49
2024/04/16 06:20:37;;;;;;;;;1.00;1.00;;;;;;;;5502539;25;44187;-48
2024/04/16 06:23:02;;;;;;;;;4.00;2.67;;;;;;;;5502361;25;45220;-50
2024/04/16 06:25:27;;;;;;;;;2.33;2.33;;;;;;;;5501737;25;43958;-48
2024/04/16 06:27:54;;;;;;;;;3.33;2.33;;;;;;;;5502066;25;43914;-50
2024/04/16 06:30:20;;;;;;;;;5.00;2.00;;;;;;;;5496536;25;43970;-51
2024/04/16 06:32:45;;;;;;;;;2.67;2.67;;;;;;;;5487469;25;44842;-50
2024/04/16 06:35:10;;;;;;;;;3.00;3.00;;;;;;;;5502768;25;43748;-50
2024/04/16 06:37:35;;;;;;;;;3.00;0.67;;;;;;;;5502010;25;43740;-50
2024/04/16 06:40:01;;;;;;;;;3.00;1.67;;;;;;;;5469860;25;43854;-50
2024/04/16 06:42:26;;;;;;;;;2.33;2.00;;;;;;;;5501477;25;43804;-51
2024/04/16 06:44:51;;;;;;;;;2.00;1.00;;;;;;;;5502592;25;43891;-49
2024/04/16 06:47:16;;;;;;;;;4.00;2.67;;;;;;;;5501958;25;43987;-52
2024/04/16 06:49:43;;;;;;;;;7.00;2.67;;;;;;;;5501964;25;44150;-52
2024/04/16 06:52:08;;;;;;;;;6.00;2.00;;;;;;;;5502406;25;44105;-54
2024/04/16 06:54:34;;;;;;;;;4.00;2.00;;;;;;;;5468772;25;44101;-52
2024/04/16 06:56:59;;;;;;;;;2.67;2.33;;;;;;;;5502515;25;43735;-53
2024/04/16 06:59:24;;;;;;;;;2.67;2.67;;;;;;;;5501753;25;44233;-53
2024/04/16 07:01:49;;;;;;;;;2.67;2.00;;;;;;;;5502308;25;43912;-53
2024/04/16 07:04:14;;;;;;;;;8.67;2.00;;;;;;;;5501906;25;43898;-54
2024/04/16 07:06:41;;;;;;;;;7.33;2.33;;;;;;;;5501682;25;43913;-53
2024/04/16 07:09:06;;;;;;;;;5.00;3.00;;;;;;;;5501680;25;43937;-52
2024/04/16 07:11:31;;;;;;;;;3.00;3.00;;;;;;;;5468815;25;44837;-49
2024/04/16 07:13:56;;;;;;;;;4.00;2.00;;;;;;;;5468072;25;44890;-50
2024/04/16 07:16:22;;;;;;;;;4.00;2.00;;;;;;;;5502239;25;43805;-51
2024/04/16 07:18:47;;;;;;;;;1.67;1.67;;;;;;;;5501566;25;43905;-50
2024/04/16 07:21:12;;;;;;;;;4.00;2.00;;;;;;;;5469044;25;45764;-51
2024/04/16 07:23:37;;;;;;;;;4.33;1.67;;;;;;;;5500795;25;43933;-51
2024/04/16 07:26:03;;;;;;;;;3.00;3.00;;;;;;;;5502283;25;43843;-51
2024/04/16 07:28:28;;;;;;;;;2.33;2.00;;;;;;;;5500029;25;43911;-51
2024/04/16 07:30:53;;;;;;;;;2.00;2.00;;;;;;;;5487440;25;44824;-53
2024/04/16 07:33:21;;;;;;;;;2.33;1.67;;;;;;;;5495178;25;43890;-50
2024/04/16 07:35:46;;;;;;;;;2.33;1.67;;;;;;;;5501637;25;43928;-52
2024/04/16 07:38:14;;;;;;;;;4.33;1.00;;;;;;;;5501487;25;44330;-52
2024/04/16 07:40:39;;;;;;;;;3.33;2.67;;;;;;;;5500877;25;45206;-53
2024/04/16 07:43:04;;;;;;;;;6.00;3.00;;;;;;;;5468876;25;44272;-49
2024/04/16 07:45:29;;;;;;;;;3.00;3.00;;;;;;;;5500687;25;43904;-52
2024/04/16 07:47:54;;;;;;;;;4.00;2.33;;;;;;;;5501151;25;43987;-49
2024/04/16 07:50:20;;;;;;;;;4.00;3.00;;;;;;;;5469001;25;46052;-51
2024/04/16 07:52:45;;;;;;;;;4.00;2.67;;;;;;;;5500419;25;43824;-51
2024/04/16 07:55:10;;;;;;;;;2.67;2.67;;;;;;;;5501928;25;43929;-52
2024/04/16 07:57:35;;;;;;;;;3.00;3.00;;;;;;;;5500605;25;43906;-49
2024/04/16 08:00:00;;;;;;;;;2.33;2.00;;;;;;;;5501051;25;45262;-49
2024/04/16 08:02:26;;;;;;;;;2.67;2.67;;;;;;;;5501021;25;43705;-53
2024/04/16 08:04:51;;;;;;;;;4.00;2.00;;;;;;;;5501583;25;43998;-50
2024/04/16 08:07:17;;;;;;;;;4.00;3.00;;;;;;;;5500919;25;44142;-50
2024/04/16 08:09:43;;;;;;;;;4.00;2.00;;;;;;;;5500080;25;44026;-51
2024/04/16 08:12:08;;;;;;;;;4.00;1.00;;;;;;;;5500850;25;43825;-52
2024/04/16 08:14:33;;;;;;;;;0.67;0.67;;;;;;;;5500772;25;43824;-49
2024/04/16 08:16:58;;;;;;;;;3.00;1.00;;;;;;;;5500971;25;43986;-53
2024/04/16 08:19:24;;;;;;;;;3.33;1.33;;;;;;;;5500713;25;45057;-49
2024/04/16 08:21:50;;;;;;;;;2.33;1.67;;;;;;;;5500715;25;43858;-51
2024/04/16 08:24:15;;;;;;;;;3.00;3.00;;;;;;;;5500390;25;43868;-51
2024/04/16 08:26:41;;;;;;;;;4.00;2.00;;;;;;;;5500281;25;43983;-50
2024/04/16 08:29:06;;;;;;;;;4.00;2.67;;;;;;;;5500541;25;44905;-50
2024/04/16 08:31:31;;;;;;;;;3.00;1.00;;;;;;;;5499872;25;44011;-51
2024/04/16 08:33:58;;;;;;;;;4.00;2.33;;;;;;;;5501003;25;43851;-52
2024/04/16 08:36:23;;;;;;;;;2.67;2.00;;;;;;;;5500016;25;43895;-49
2024/04/16 08:38:49;;;;;;;;;3.33;1.00;;;;;;;;5500243;25;44925;-52
2024/04/16 08:41:14;;;;;;;;;8.00;3.00;;;;;;;;5503208;25;44154;-50
2024/04/16 08:43:39;;;;;;;;;4.00;1.00;;;;;;;;5503157;25;43859;-49
2024/04/16 08:46:06;;;;;;;;;2.00;2.00;;;;;;;;5503962;25;43768;-50
2024/04/16 08:48:31;;;;;;;;;1.33;1.33;;;;;;;;5491161;25;44998;-51
2024/04/16 08:50:57;;;;;;;;;3.00;0.33;;;;;;;;5503330;25;43871;-51
2024/04/16 08:53:24;;;;;;;;;1.00;0.67;;;;;;;;5483128;25;43913;-50
2024/04/16 08:55:49;;;;;;;;;0.33;0.33;;;;;;;;5503092;25;43837;-53
2024/04/16 08:58:14;;;;;;;;;0.00;0.00;;;;;;;;5495078;25;44252;-49
2024/04/16 09:00:39;;;;;;;;;1.00;1.00;;;;;;;;5485327;25;43997;-51
2024/04/16 09:03:04;;;;;;;;;2.67;1.00;;;;;;;;5503903;25;43947;-52
2024/04/16 09:05:30;;;;;;;;;0.00;0.00;;;;;;;;5502556;25;43984;-52
2024/04/16 09:07:55;;;;;;;;;3.67;1.00;;;;;;;;5503172;25;44736;-52
2024/04/16 09:10:21;;;;;;;;;0.00;0.00;;;;;;;;5502917;25;43873;-51
2024/04/16 09:12:50;;;;;;;;;2.33;0.33;;;;;;;;5503035;25;43946;-50
2024/04/16 09:15:15;;;;;;;;;1.00;1.00;;;;;;;;5503121;25;43891;-53
2024/04/16 09:17:44;;;;;;;;;2.67;1.33;;;;;;;;5502660;25;43903;-53
2024/04/16 09:20:12;;;;;;;;;1.00;1.00;;;;;;;;5470299;25;43797;-53
2024/04/16 09:22:37;;;;;;;;;4.00;2.00;;;;;;;;5488007;25;43964;-54
2024/04/16 09:25:03;;;;;;;;;2.00;1.00;;;;;;;;5493932;25;43975;-53
2024/04/16 09:27:29;;;;;;;;;2.00;1.00;;;;;;;;5502811;25;45597;-54
2024/04/16 09:30:03;;;;;;;;;3.00;2.00;;;;;;;;5502872;25;43917;-53
2024/04/16 09:32:28;;;;;;;;;3.00;3.00;;;;;;;;5503049;25;43754;-52
2024/04/16 09:34:53;;;;;;;;;3.00;3.00;;;;;;;;5503756;25;44227;-54
2024/04/16 09:37:19;;;;;;;;;2.75;2.75;;;;;;;;5502918;25;43896;-53
2024/04/16 09:39:44;;;;;;;;;5.50;3.00;;;;;;;;5502112;25;43758;-53
2024/04/16 09:42:10;;;;;;;;;4.00;2.25;;;;;;;;5503333;25;43715;-52
2024/04/16 09:44:36;;;;;;;;;3.00;2.00;;;;;;;;5502088;25;43850;-53
2024/04/16 09:47:02;;;;;;;;;3.00;3.00;;;;;;;;5502228;25;44966;-53
2024/04/16 09:49:28;;;;;;;;;3.50;3.00;;;;;;;;5502354;25;43893;-52
2024/04/16 09:51:53;;;;;;;;;5.25;4.75;;;;;;;;5501996;25;43896;-51
2024/04/16 09:54:19;;;;;;;;;4.25;1.25;;;;;;;;5502315;25;44059;-52
2024/04/16 09:56:45;;;;;;;;;3.50;1.00;;;;;;;;5502363;25;45311;-54
2024/04/16 09:59:10;;;;;;;;;1.60;1.60;;;;;;;;5502131;25;44181;-54
2024/04/16 10:01:36;;;;;;;;;3.75;1.00;;;;;;;;5498844;25;44359;-50
2024/04/16 10:04:01;;;;;;;;;1.00;0.25;;;;;;;;5486983;25;44038;-52
2024/04/16 10:06:27;;;;;;;;;0.00;0.00;;;;;;;;5502044;25;43957;-50
2024/04/16 10:08:54;;;;;;;;;0.00;0.00;;;;;;;;5492761;25;43858;-53
2024/04/16 10:11:20;;;;;;;;;0.00;0.00;;;;;;;;5455008;26;43924;-53
2024/04/16 10:13:45;;;;;;;;;0.00;0.00;;;;;;;;5455306;25;43975;-51
2024/04/16 10:16:11;;;;;;;;;0.00;0.00;;;;;;;;5502482;25;45007;-50
2024/04/16 10:18:36;;;;;;;;;1.00;0.25;;;;;;;;5501615;25;44268;-51
2024/04/16 10:21:02;;;;;;;;;0.50;0.00;;;;;;;;5502919;25;43964;-53
2024/04/16 10:23:28;;;;;;;;;7.33;6.00;;;;;;;;5501538;25;43807;-51
2024/04/16 10:25:54;;;;;;;;;7.33;6.00;;;;;;;;5502475;25;43847;-50
2024/04/16 10:28:30;;;;;;;;;0.00;0.00;;;;;;;;5499795;25;43995;-51
2024/04/16 10:30:59;;;;;;;;;2.75;0.25;;;;;;;;5494200;25;44291;-51
2024/04/16 10:33:25;;;;;;;;;2.50;1.00;;;;;;;;5502012;25;43819;-50
2024/04/16 10:35:52;;;;;;;;;3.00;1.00;;;;;;;;5469164;25;45875;-49
2024/04/16 10:38:17;;;;;;;;;1.00;1.00;;;;;;;;5456305;25;44673;-50
2024/04/16 10:40:52;;;;;;;;;0.75;0.00;;;;;;;;5502027;25;43803;-49
2024/04/16 10:43:20;;;;;;;;;2.00;0.75;;;;;;;;5499730;25;43937;-51
2024/04/16 10:45:46;;;;;;;;;2.00;2.00;;;;;;;;5501436;25;45300;-48
2024/04/16 10:48:12;;;;;;;;;2.00;2.00;;;;;;;;5501322;25;44070;-52
2024/04/16 10:50:40;;;;;;;;;3.00;1.75;;;;;;;;5501331;25;44101;-53
2024/04/16 10:53:13;;;;;;;;;5.00;2.00;;;;;;;;5501776;25;44161;-53
2024/04/16 10:55:39;;;;;;;;;2.00;1.75;;;;;;;;5499509;25;45265;-53
2024/04/16 10:58:04;;;;;;;;;5.25;3.00;;;;;;;;5500009;25;44015;-53
2024/04/16 11:00:30;;;;;;;;;1.75;0.50;;;;;;;;5481667;25;43879;-52
2024/04/16 11:02:58;;;;;;;;;1.00;1.00;;;;;;;;5500609;25;43820;-51
2024/04/16 11:05:23;;;;;;;;;3.00;1.75;;;;;;;;5501938;25;44361;-50
2024/04/16 11:07:49;;;;;;;;;1.00;1.00;;;;;;;;5501742;25;43872;-51
2024/04/16 11:10:14;;;;;;;;;1.00;1.00;;;;;;;;5501491;25;43900;-53
2024/04/16 11:12:39;;;;;;;;;1.00;0.50;;;;;;;;5501859;25;43748;-52
2024/04/16 11:15:05;;;;;;;;;0.00;0.00;;;;;;;;5501935;25;44021;-53
2024/04/16 11:17:30;;;;;;;;;0.00;0.00;;;;;;;;5501845;25;43872;-50
2024/04/16 11:19:56;;;;;;;;;1.00;0.00;;;;;;;;5502644;25;43771;-49
2024/04/16 11:22:21;;;;;;;;;0.00;0.00;;;;;;;;5501634;25;44429;-51
2024/04/16 11:24:46;;;;;;;;;0.00;0.00;;;;;;;;5500916;25;45313;-50
2024/04/16 11:27:12;;;;;;;;;0.33;0.33;;;;;;;;5501405;25;43942;-52
2024/04/16 11:29:44;;;;;;;;;0.33;0.00;;;;;;;;5463897;25;43833;-52
2024/04/16 11:32:10;;;;;;;;;6.00;1.00;;;;;;;;5493303;25;44114;-51
2024/04/16 11:34:35;;;;;;;;;1.00;1.00;;;;;;;;5453155;25;44371;-50
2024/04/16 11:37:00;;;;;;;;;2.00;0.67;;;;;;;;5500662;25;44244;-52
2024/04/16 11:39:29;;;;;;;;;0.33;0.00;;;;;;;;5491721;25;43976;-50
2024/04/16 11:41:54;;;;;;;;;0.67;0.33;;;;;;;;5494865;25;44704;-51
2024/04/16 11:44:19;;;;;;;;;1.67;0.33;;;;;;;;5499503;25;45673;-51
2024/04/16 11:46:44;;;;;;;;;2.00;1.00;;;;;;;;5494792;25;44210;-50
2024/04/16 11:49:09;;;;;;;;;0.00;0.00;;;;;;;;5499320;25;43996;-52
2024/04/16 11:51:34;;;;;;;;;3.33;0.00;;;;;;;;5472021;25;44314;-50
2024/04/16 11:54:00;;;;;;;;;1.00;1.00;;;;;;;;5500939;25;44852;-49
2024/04/16 11:56:25;;;;;;;;;0.00;0.00;;;;;;;;5496940;25;43934;-50
2024/04/16 11:58:50;;;;;;;;;0.00;0.00;;;;;;;;5489978;25;44216;-50
2024/04/16 12:01:15;;;;;;;;;2.00;0.33;;;;;;;;5462606;25;43668;-53
2024/04/16 12:03:40;;;;;;;;;0.00;0.00;;;;;;;;5496600;25;44169;-52
2024/04/16 12:06:06;;;;;;;;;2.00;0.00;;;;;;;;5497380;25;43919;-51
2024/04/16 12:08:31;;;;;;;;;1.00;0.00;;;;;;;;5495249;25;43641;-53
2024/04/16 12:10:56;;;;;;;;;2.00;1.00;;;;;;;;5510060;25;43886;-50
2024/04/16 12:13:21;;;;;;;;;0.00;0.00;;;;;;;;5490621;25;44187;-49
2024/04/16 12:15:47;;;;;;;;;0.00;0.00;;;;;;;;5488614;25;44022;-50
2024/04/16 12:18:12;;;;;;;;;1.33;0.67;;;;;;;;5501718;25;44058;-50
2024/04/16 12:20:37;;;;;;;;;1.00;1.00;;;;;;;;5510161;25;43827;-50
2024/04/16 12:23:02;;;;;;;;;0.67;0.67;;;;;;;;5481744;25;44998;-52
2024/04/16 12:25:28;;;;;;;;;0.67;0.67;;;;;;;;5501467;25;43953;-52
2024/04/16 12:27:53;;;;;;;;;0.00;0.00;;;;;;;;5503077;25;43918;-52
2024/04/16 12:30:18;;;;;;;;;0.00;0.00;;;;;;;;5498312;25;44011;-50
2024/04/16 12:32:43;;;;;;;;;1.00;0.33;;;;;;;;5479890;25;44059;-53
2024/04/16 12:35:09;;;;;;;;;1.33;0.00;;;;;;;;5490466;25;44360;-53
2024/04/16 12:37:34;;;;;;;;;1.00;1.00;;;;;;;;5496602;25;43952;-51
2024/04/16 12:39:59;;;;;;;;;2.00;0.33;;;;;;;;5487897;25;43880;-51
2024/04/16 12:42:24;;;;;;;;;2.33;0.00;;;;;;;;5499977;25;45014;-54
2024/04/16 12:44:49;;;;;;;;;2.33;1.00;;;;;;;;5476638;25;44469;-50
2024/04/16 12:47:15;;;;;;;;;1.00;1.00;;;;;;;;5498250;25;43926;-53
2024/04/16 12:49:42;;;;;;;;;1.33;1.33;;;;;;;;5514483;25;44377;-51
2024/04/16 12:52:07;;;;;;;;;3.00;2.67;;;;;;;;5509450;25;44220;-52
2024/04/16 12:54:35;;;;;;;;;1.67;1.00;;;;;;;;5508020;25;44054;-51
2024/04/16 12:57:00;;;;;;;;;1.00;0.67;;;;;;;;5467508;25;44009;-51
2024/04/16 12:59:26;;;;;;;;;4.00;1.00;;;;;;;;5475100;25;44243;-54
2024/04/16 13:01:51;;;;;;;;;1.33;0.00;;;;;;;;5525832;25;43931;-54
2024/04/16 13:04:16;;;;;;;;;1.33;0.33;;;;;;;;5455485;25;43891;-53
2024/04/16 13:06:42;;;;;;;;;0.00;0.00;;;;;;;;5471152;25;44373;-51
2024/04/16 13:09:08;;;;;;;;;0.67;0.67;;;;;;;;5475244;25;44113;-54
2024/04/16 13:11:33;;;;;;;;;2.00;0.00;;;;;;;;5490166;25;44908;-55
2024/04/16 13:13:58;;;;;;;;;4.00;0.00;;;;;;;;5505996;25;43924;-53
2024/04/16 13:16:23;;;;;;;;;0.67;0.67;;;;;;;;5498922;25;44180;-51
2024/04/16 13:18:49;;;;;;;;;0.67;0.67;;;;;;;;5473681;25;44299;-53
2024/04/16 13:21:15;;;;;;;;;0.00;0.00;;;;;;;;5513544;25;44793;-54
2024/04/16 13:23:40;;;;;;;;;1.33;1.00;;;;;;;;5510160;25;43902;-52
2024/04/16 13:26:06;;;;;;;;;0.67;0.00;;;;;;;;5480571;25;44070;-54
2024/04/16 13:28:31;;;;;;;;;1.67;0.67;;;;;;;;5514090;25;44015;-53
2024/04/16 13:30:57;;;;;;;;;0.33;0.33;;;;;;;;5483074;25;45308;-54
2024/04/16 13:33:25;;;;;;;;;2.50;0.00;;;;;;;;5478565;25;44331;-51
2024/04/16 13:35:51;;;;;;;;;0.00;0.00;;;;;;;;5529236;25;43840;-53
2024/04/16 13:38:16;;;;;;;;;2.00;0.00;;;;;;;;5480204;25;44006;-53
2024/04/16 13:40:41;;;;;;;;;0.00;0.00;;;;;;;;5503634;25;44954;-53
2024/04/16 13:43:06;;;;;;;;;0.00;0.00;;;;;;;;5493314;25;44109;-52
2024/04/16 13:45:31;;;;;;;;;0.33;0.33;;;;;;;;5523437;25;44117;-51
2024/04/16 13:47:57;;;;;;;;;2.33;0.00;;;;;;;;5510112;25;44026;-53
2024/04/16 13:50:22;;;;;;;;;0.67;0.67;;;;;;;;5486371;25;44083;-52
2024/04/16 13:52:47;;;;;;;;;2.33;0.67;;;;;;;;5507673;25;43994;-52
2024/04/16 13:55:13;;;;;;;;;0.67;0.67;;;;;;;;5507473;25;44264;-53
2024/04/16 13:57:38;;;;;;;;;1.00;1.00;;;;;;;;5502549;25;43803;-51
2024/04/16 14:00:04;;;;;;;;;1.67;1.67;;;;;;;;5499324;25;44044;-50
2024/04/16 14:02:29;;;;;;;;;2.67;2.67;;;;;;;;5493885;25;43979;-59
2024/04/16 14:04:54;;;;;;;;;0.67;0.67;;;;;;;;5472385;25;43914;-52
2024/04/16 14:07:19;;;;;;;;;0.67;0.00;;;;;;;;5508270;25;44093;-51
2024/04/16 14:09:44;;;;;;;;;1.33;0.00;;;;;;;;5475927;25;44677;-51
2024/04/16 14:12:09;;;;;;;;;2.00;0.33;;;;;;;;5504419;25;43859;-51
2024/04/16 14:14:35;;;;;;;;;0.67;0.67;;;;;;;;5486206;25;44004;-50
2024/04/16 14:17:00;;;;;;;;;0.33;0.33;;;;;;;;5509704;25;45926;-53
2024/04/16 14:19:25;;;;;;;;;0.00;0.00;;;;;;;;5494045;25;45568;-50
2024/04/16 14:21:50;;;;;;;;;2.00;0.00;;;;;;;;5499225;25;43931;-51
2024/04/16 14:24:19;;;;;;;;;0.00;0.00;;;;;;;;5499235;25;43920;-52
2024/04/16 14:26:44;;;;;;;;;0.67;0.00;;;;;;;;5500972;25;43718;-53
2024/04/16 14:29:09;;;;;;;;;0.67;0.67;;;;;;;;5501429;25;45084;-53
2024/04/16 14:31:34;;;;;;;;;0.00;0.00;;;;;;;;5502190;25;43887;-51
2024/04/16 14:33:59;;;;;;;;;0.67;0.00;;;;;;;;5502579;25;43824;-50